Normed Antwerpen — V2DG9 — position and weather

sailwx.info

Track history (hours):
 
Tides and Currents Weather Stations Pressure Air Temp Water Temp Dewpoint Dewpoint Depression Visibility Wind Speed Wind Dir Waves Ship Positions

Normed Antwerpen

Last reported at 2016-Aug-29 22:31 UTC. Time now 2016-Aug-29 23:31 UTC.
Position N 43°10' E 009°04'.

Length 130 m; draft 6.2 m.

Type: Ship. MMSI: 305210993.

Date/timePositionNaut miles runAvg speedWind from/ knotsBaromVisibWave heightAir tempDewpointWater temp
2016-Aug-29 22:31N 43°10' E 009°04'1212.6
2016-Aug-29 21:33N 43°06' E 009°20'1312.5
2016-Aug-29 20:30N 42°60' E 009°36'1212.4
2016-Aug-29 19:33N 42°49' E 009°42'1312.6
2016-Aug-29 18:33N 42°38' E 009°49'1312.5
2016-Aug-29 17:33N 42°26' E 009°56'1512.0
2016-Aug-29 16:17N 42°14' E 010°08'2512.5
2016-Aug-29 14:14N 41°57' E 010°34'6612.8
2016-Aug-29 09:07N 41°13' E 011°39'8212.4
2016-Aug-29 02:31N 40°17' E 012°59'1212.6
2016-Aug-29 01:33N 40°09' E 013°11'1512.3
2016-Aug-29 00:19N 39°59' E 013°25'1212.4
2016-Aug-28 23:22N 39°51' E 013°37'8912.6
2016-Aug-28 16:19N 38°51' E 015°02'1012.9
2016-Aug-28 15:32N 38°44' E 015°11'1312.6
2016-Aug-28 14:31N 38°35' E 015°22'1212.7
2016-Aug-28 13:34N 38°26' E 015°32'1211.9
2016-Aug-28 12:33N 38°16' E 015°42'1212.2
2016-Aug-28 11:33N 38°05' E 015°36'1211.5
2016-Aug-28 10:33N 37°54' E 015°40'1313.2
2016-Aug-28 09:33N 37°48' E 015°56'1313.2
2016-Aug-28 08:33N 37°43' E 016°11'  
2016-Aug-25 18:23N 33°28' E 031°32'1113.1
2016-Aug-25 17:33N 33°26' E 031°45'1313.2
2016-Aug-25 16:33N 33°24' E 032°01'1313.2
2016-Aug-25 15:33N 33°21' E 032°16'1413.2
2016-Aug-25 14:29N 33°18' E 032°33'1213.1
2016-Aug-25 13:33N 33°16' E 032°47'1313.1
2016-Aug-25 12:32N 33°13' E 033°03'1313.7
2016-Aug-25 11:33N 33°11' E 033°18'1413.7
2016-Aug-25 10:34N 33°08' E 033°35'5513.3
2016-Aug-25 06:27N 32°57' E 034°39'2010.5
2016-Aug-25 04:32N 32°49' E 035°01'0 0.0
2016-Aug-25 03:32N 32°49' E 035°01'0 0.0
2016-Aug-25 02:31N 32°49' E 035°01'0 0.2
2016-Aug-25 01:33N 32°49' E 035°01'6 6.2
2016-Aug-25 00:33N 32°52' E 034°54'2713.5
2016-Aug-24 22:33N 32°57' E 034°23'1413.6
2016-Aug-24 21:30N 32°59' E 034°06'1212.4
2016-Aug-24 20:33N 33°05' E 033°54'2612.7
2016-Aug-24 18:32N 33°20' E 033°29'4113.3
2016-Aug-24 15:29N 33°44' E 032°50'1313.8
2016-Aug-24 14:33N 33°52' E 032°38'1414.0
2016-Aug-24 13:34N 34°01' E 032°25'1614.3
2016-Aug-24 12:27N 34°11' E 032°10'1314.5
2016-Aug-24 11:33N 34°19' E 031°58'1814.2
2016-Aug-24 10:19N 34°30' E 031°41'  
2016-Aug-20 01:32N 37°32' E 025°54'  
Track history (hours):
 
Tides and Currents Weather Stations Pressure Air Temp Water Temp Dewpoint Dewpoint Depression Visibility Wind Speed Wind Dir Waves Ship Positions

Normed Antwerpen

Last reported at 2016-Aug-29 22:31 UTC. Time now 2016-Aug-29 23:31 UTC.
Position N 43°10' E 009°04'.

Length 130 m; draft 6.2 m.

Type: Ship. MMSI: 305210993.

Date/timePositionNaut miles runAvg speedWind from/ knotsBaromVisibWave heightAir tempDewpointWater temp
2016-Aug-29 22:31N 43°10' E 009°04'1212.6
2016-Aug-29 21:33N 43°06' E 009°20'1312.5
2016-Aug-29 20:30N 42°60' E 009°36'1212.4
2016-Aug-29 19:33N 42°49' E 009°42'1312.6
2016-Aug-29 18:33N 42°38' E 009°49'1312.5
2016-Aug-29 17:33N 42°26' E 009°56'1512.0
2016-Aug-29 16:17N 42°14' E 010°08'2512.5
2016-Aug-29 14:14N 41°57' E 010°34'6612.8
2016-Aug-29 09:07N 41°13' E 011°39'8212.4
2016-Aug-29 02:31N 40°17' E 012°59'1212.6
2016-Aug-29 01:33N 40°09' E 013°11'1512.3
2016-Aug-29 00:19N 39°59' E 013°25'1212.4
2016-Aug-28 23:22N 39°51' E 013°37'8912.6
2016-Aug-28 16:19N 38°51' E 015°02'1012.9
2016-Aug-28 15:32N 38°44' E 015°11'1312.6
2016-Aug-28 14:31N 38°35' E 015°22'1212.7
2016-Aug-28 13:34N 38°26' E 015°32'1211.9
2016-Aug-28 12:33N 38°16' E 015°42'1212.2
2016-Aug-28 11:33N 38°05' E 015°36'1211.5
2016-Aug-28 10:33N 37°54' E 015°40'1313.2
2016-Aug-28 09:33N 37°48' E 015°56'1313.2
2016-Aug-28 08:33N 37°43' E 016°11'  
2016-Aug-25 18:23N 33°28' E 031°32'1113.1
2016-Aug-25 17:33N 33°26' E 031°45'1313.2
2016-Aug-25 16:33N 33°24' E 032°01'1313.2
2016-Aug-25 15:33N 33°21' E 032°16'1413.2
2016-Aug-25 14:29N 33°18' E 032°33'1213.1
2016-Aug-25 13:33N 33°16' E 032°47'1313.1
2016-Aug-25 12:32N 33°13' E 033°03'1313.7
2016-Aug-25 11:33N 33°11' E 033°18'1413.7
2016-Aug-25 10:34N 33°08' E 033°35'5513.3
2016-Aug-25 06:27N 32°57' E 034°39'2010.5
2016-Aug-25 04:32N 32°49' E 035°01'0 0.0
2016-Aug-25 03:32N 32°49' E 035°01'0 0.0
2016-Aug-25 02:31N 32°49' E 035°01'0 0.2
2016-Aug-25 01:33N 32°49' E 035°01'6 6.2
2016-Aug-25 00:33N 32°52' E 034°54'2713.5
2016-Aug-24 22:33N 32°57' E 034°23'1413.6
2016-Aug-24 21:30N 32°59' E 034°06'1212.4
2016-Aug-24 20:33N 33°05' E 033°54'2612.7
2016-Aug-24 18:32N 33°20' E 033°29'4113.3
2016-Aug-24 15:29N 33°44' E 032°50'1313.8
2016-Aug-24 14:33N 33°52' E 032°38'1414.0
2016-Aug-24 13:34N 34°01' E 032°25'1614.3
2016-Aug-24 12:27N 34°11' E 032°10'1314.5
2016-Aug-24 11:33N 34°19' E 031°58'1814.2
2016-Aug-24 10:19N 34°30' E 031°41'  
2016-Aug-20 01:32N 37°32' E 025°54'  

Dump ship's entire track history